sensor_id;sensor_type;location;lat;lon;timestamp;pressure;altitude;pressure_sealevel;temperature;humidity
4570;BME280;2297;51.442;6.996;2023-07-29T00:00:39;99491.19;;;20.53;68.58
4570;BME280;2297;51.442;6.996;2023-07-29T00:03:05;99491.41;;;20.50;68.73
4570;BME280;2297;51.442;6.996;2023-07-29T00:05:32;99488.81;;;20.37;69.51
4570;BME280;2297;51.442;6.996;2023-07-29T00:07:59;99488.81;;;20.37;69.53
4570;BME280;2297;51.442;6.996;2023-07-29T00:10:25;99485.25;;;20.36;70.00
4570;BME280;2297;51.442;6.996;2023-07-29T00:12:52;99492.59;;;20.34;69.72
4570;BME280;2297;51.442;6.996;2023-07-29T00:15:20;99483.22;;;20.16;70.78
4570;BME280;2297;51.442;6.996;2023-07-29T00:17:47;99491.09;;;20.30;69.86
4570;BME280;2297;51.442;6.996;2023-07-29T00:20:13;99486.63;;;20.18;70.33
4570;BME280;2297;51.442;6.996;2023-07-29T00:22:40;99489.16;;;20.32;69.75
4570;BME280;2297;51.442;6.996;2023-07-29T00:25:07;99485.34;;;20.23;70.08
4570;BME280;2297;51.442;6.996;2023-07-29T00:27:34;99488.81;;;20.37;69.62
4570;BME280;2297;51.442;6.996;2023-07-29T00:30:04;99480.78;;;20.37;69.49
4570;BME280;2297;51.442;6.996;2023-07-29T00:32:32;99473.06;;;20.32;69.83
4570;BME280;2297;51.442;6.996;2023-07-29T00:34:59;99465.28;;;20.40;69.48
4570;BME280;2297;51.442;6.996;2023-07-29T00:37:26;99465.22;;;20.53;68.89
4570;BME280;2297;51.442;6.996;2023-07-29T00:39:53;99473.34;;;20.40;69.27
4570;BME280;2297;51.442;6.996;2023-07-29T00:42:19;99470.47;;;20.55;68.80
4570;BME280;2297;51.442;6.996;2023-07-29T00:44:46;99469.50;;;20.56;68.49
4570;BME280;2297;51.442;6.996;2023-07-29T00:47:15;99468.03;;;20.52;68.81
4570;BME280;2297;51.442;6.996;2023-07-29T00:49:43;99465.59;;;20.60;68.58
4570;BME280;2297;51.442;6.996;2023-07-29T00:52:12;99466.31;;;20.51;68.97
4570;BME280;2297;51.442;6.996;2023-07-29T00:54:39;99465.34;;;20.52;69.02
4570;BME280;2297;51.442;6.996;2023-07-29T00:57:06;99457.06;;;20.55;68.65
4570;BME280;2297;51.442;6.996;2023-07-29T00:59:35;99460.44;;;20.45;68.80
4570;BME280;2297;51.442;6.996;2023-07-29T01:05:27;99449.94;;;20.42;69.33
4570;BME280;2297;51.442;6.996;2023-07-29T01:08:04;99441.66;;;20.45;69.04
4570;BME280;2297;51.442;6.996;2023-07-29T01:10:39;99449.19;;;20.40;69.34
4570;BME280;2297;51.442;6.996;2023-07-29T01:13:10;99450.69;;;20.44;68.85
4570;BME280;2297;51.442;6.996;2023-07-29T01:15:43;99449.59;;;20.47;68.80
4570;BME280;2297;51.442;6.996;2023-07-29T01:18:14;99447.28;;;20.54;68.68
4570;BME280;2297;51.442;6.996;2023-07-29T01:20:43;99440.19;;;20.41;68.92
4570;BME280;2297;51.442;6.996;2023-07-29T01:23:11;99448.28;;;20.53;68.76
4570;BME280;2297;51.442;6.996;2023-07-29T01:25:39;99449.50;;;20.49;68.87
4570;BME280;2297;51.442;6.996;2023-07-29T01:28:06;99448.44;;;20.63;68.47
4570;BME280;2297;51.442;6.996;2023-07-29T01:30:39;99447.66;;;20.49;68.93
4570;BME280;2297;51.442;6.996;2023-07-29T01:33:10;99441.34;;;20.50;68.71
4570;BME280;2297;51.442;6.996;2023-07-29T01:36:11;99446.13;;;20.58;68.54
4570;BME280;2297;51.442;6.996;2023-07-29T01:38:41;99433.84;;;20.67;67.86
4570;BME280;2297;51.442;6.996;2023-07-29T01:41:10;99435.09;;;20.74;67.77
4570;BME280;2297;51.442;6.996;2023-07-29T01:43:37;99433.97;;;20.65;67.89
4570;BME280;2297;51.442;6.996;2023-07-29T01:46:09;99433.00;;;20.66;67.91
4570;BME280;2297;51.442;6.996;2023-07-29T01:48:36;99436.41;;;20.68;67.67
4570;BME280;2297;51.442;6.996;2023-07-29T01:51:03;99440.50;;;20.61;67.87
4570;BME280;2297;51.442;6.996;2023-07-29T01:53:30;99440.50;;;20.61;67.74
4570;BME280;2297;51.442;6.996;2023-07-29T01:55:56;99431.03;;;20.68;67.63
4570;BME280;2297;51.442;6.996;2023-07-29T01:58:25;99422.97;;;20.68;67.58
4570;BME280;2297;51.442;6.996;2023-07-29T02:00:51;99422.44;;;20.63;67.65
4570;BME280;2297;51.442;6.996;2023-07-29T02:03:18;99427.38;;;20.69;67.53
4570;BME280;2297;51.442;6.996;2023-07-29T02:05:44;99431.72;;;20.59;67.69
4570;BME280;2297;51.442;6.996;2023-07-29T02:08:11;99427.81;;;20.63;67.66
4570;BME280;2297;51.442;6.996;2023-07-29T02:10:39;99422.69;;;20.60;67.81
4570;BME280;2297;51.442;6.996;2023-07-29T02:13:06;99410.97;;;20.50;68.10
4570;BME280;2297;51.442;6.996;2023-07-29T02:15:34;99406.34;;;20.63;67.50
4570;BME280;2297;51.442;6.996;2023-07-29T02:18:00;99408.34;;;20.72;67.54
4570;BME280;2297;51.442;6.996;2023-07-29T02:20:28;99410.03;;;20.62;67.61
4570;BME280;2297;51.442;6.996;2023-07-29T02:22:55;99406.56;;;20.37;68.56
4570;BME280;2297;51.442;6.996;2023-07-29T02:25:22;99398.25;;;20.29;68.95
4570;BME280;2297;51.442;6.996;2023-07-29T02:27:48;99397.28;;;20.41;68.35
4570;BME280;2297;51.442;6.996;2023-07-29T02:30:15;99394.69;;;20.28;68.87
4570;BME280;2297;51.442;6.996;2023-07-29T02:32:43;99393.59;;;20.31;68.77
4570;BME280;2297;51.442;6.996;2023-07-29T02:35:09;99393.59;;;20.20;69.58
4570;BME280;2297;51.442;6.996;2023-07-29T02:37:36;99399.47;;;20.36;68.69
4570;BME280;2297;51.442;6.996;2023-07-29T02:40:03;99406.31;;;20.40;68.47
4570;BME280;2297;51.442;6.996;2023-07-29T02:42:31;99404.13;;;20.45;68.56
4570;BME280;2297;51.442;6.996;2023-07-29T02:44:57;99399.22;;;20.28;69.30
4570;BME280;2297;51.442;6.996;2023-07-29T02:47:24;99401.19;;;20.37;68.73
4570;BME280;2297;51.442;6.996;2023-07-29T02:49:52;99403.59;;;20.29;69.33
4570;BME280;2297;51.442;6.996;2023-07-29T02:52:19;99401.09;;;20.50;68.46
4570;BME280;2297;51.442;6.996;2023-07-29T02:54:45;99393.41;;;20.45;68.85
4570;BME280;2297;51.442;6.996;2023-07-29T02:57:13;99395.56;;;20.40;68.62
4570;BME280;2297;51.442;6.996;2023-07-29T02:59:39;99396.44;;;20.41;68.82
4570;BME280;2297;51.442;6.996;2023-07-29T03:02:06;99396.13;;;20.57;68.28
4570;BME280;2297;51.442;6.996;2023-07-29T03:04:33;99414.41;;;20.52;68.45
4570;BME280;2297;51.442;6.996;2023-07-29T03:07:01;99418.28;;;20.59;68.15
4570;BME280;2297;51.442;6.996;2023-07-29T03:09:27;99422.44;;;20.63;68.17
4570;BME280;2297;51.442;6.996;2023-07-29T03:11:54;99419.28;;;20.58;68.03
4570;BME280;2297;51.442;6.996;2023-07-29T03:14:22;99413.38;;;20.41;68.80
4570;BME280;2297;51.442;6.996;2023-07-29T03:16:48;99404.38;;;20.42;68.92
4570;BME280;2297;51.442;6.996;2023-07-29T03:19:15;99405.72;;;20.48;68.91
4570;BME280;2297;51.442;6.996;2023-07-29T03:21:42;99412.91;;;20.48;68.87
4570;BME280;2297;51.442;6.996;2023-07-29T03:24:10;99408.25;;;20.38;69.23
4570;BME280;2297;51.442;6.996;2023-07-29T03:26:36;99409.03;;;20.52;68.61
4570;BME280;2297;51.442;6.996;2023-07-29T03:29:03;99403.66;;;20.52;68.81
4570;BME280;2297;51.442;6.996;2023-07-29T03:31:30;99405.09;;;20.44;69.34
4570;BME280;2297;51.442;6.996;2023-07-29T03:33:56;99416.09;;;20.53;68.73
4570;BME280;2297;51.442;6.996;2023-07-29T03:36:24;99410.25;;;20.59;68.66
4570;BME280;2297;51.442;6.996;2023-07-29T03:38:51;99416.09;;;20.53;68.87
4570;BME280;2297;51.442;6.996;2023-07-29T03:41:19;99407.06;;;20.54;68.72
4570;BME280;2297;51.442;6.996;2023-07-29T03:43:45;99409.75;;;20.42;69.13
4570;BME280;2297;51.442;6.996;2023-07-29T03:46:12;99401.50;;;20.57;68.80
4570;BME280;2297;51.442;6.996;2023-07-29T03:48:43;99402.19;;;20.48;68.95
4570;BME280;2297;51.442;6.996;2023-07-29T03:51:09;99396.31;;;20.42;69.23
4570;BME280;2297;51.442;6.996;2023-07-29T03:53:36;99379.50;;;20.40;69.36
4570;BME280;2297;51.442;6.996;2023-07-29T03:56:03;99377.06;;;20.37;69.35
4570;BME280;2297;51.442;6.996;2023-07-29T03:58:31;99384.38;;;20.47;68.98
4570;BME280;2297;51.442;6.996;2023-07-29T04:00:57;99404.25;;;20.44;69.16
4570;BME280;2297;51.442;6.996;2023-07-29T04:03:24;99395.13;;;20.47;68.91
4570;BME280;2297;51.442;6.996;2023-07-29T04:05:52;99377.88;;;20.26;69.39
4570;BME280;2297;51.442;6.996;2023-07-29T04:08:19;99376.94;;;20.39;69.16
4570;BME280;2297;51.442;6.996;2023-07-29T04:10:45;99381.78;;;20.22;69.65
4570;BME280;2297;51.442;6.996;2023-07-29T04:13:12;99385.94;;;20.38;69.23
4570;BME280;2297;51.442;6.996;2023-07-29T04:15:40;99395.75;;;20.50;69.00
4570;BME280;2297;51.442;6.996;2023-07-29T04:18:07;99397.53;;;20.38;69.21
4570;BME280;2297;51.442;6.996;2023-07-29T04:20:33;99395.19;;;19.98;70.95
4570;BME280;2297;51.442;6.996;2023-07-29T04:23:02;99379.16;;;19.85;70.77
4570;BME280;2297;51.442;6.996;2023-07-29T04:25:28;99382.88;;;20.20;69.17
4570;BME280;2297;51.442;6.996;2023-07-29T04:27:55;99381.56;;;20.01;69.25
4570;BME280;2297;51.442;6.996;2023-07-29T04:30:22;99392.31;;;20.13;68.69
4570;BME280;2297;51.442;6.996;2023-07-29T04:32:50;99403.97;;;20.00;68.98
4570;BME280;2297;51.442;6.996;2023-07-29T04:35:17;99420.50;;;19.94;69.05
4570;BME280;2297;51.442;6.996;2023-07-29T04:37:44;99418.81;;;19.93;69.55
4570;BME280;2297;51.442;6.996;2023-07-29T04:40:13;99421.97;;;19.98;69.05
4570;BME280;2297;51.442;6.996;2023-07-29T04:42:40;99414.06;;;19.97;68.89
4570;BME280;2297;51.442;6.996;2023-07-29T04:45:07;99417.66;;;20.08;68.66
4570;BME280;2297;51.442;6.996;2023-07-29T04:47:35;99425.16;;;20.03;68.91
4570;BME280;2297;51.442;6.996;2023-07-29T04:50:04;99438.88;;;20.11;68.44
4570;BME280;2297;51.442;6.996;2023-07-29T04:52:31;99443.16;;;20.14;68.58
4570;BME280;2297;51.442;6.996;2023-07-29T04:54:58;99436.25;;;19.49;70.75
4570;BME280;2297;51.442;6.996;2023-07-29T04:57:24;99448.03;;;19.96;69.58
4570;BME280;2297;51.442;6.996;2023-07-29T04:59:51;99451.91;;;19.55;71.00
4570;BME280;2297;51.442;6.996;2023-07-29T05:02:18;99452.47;;;19.71;70.35
4570;BME280;2297;51.442;6.996;2023-07-29T05:04:45;99442.53;;;19.73;70.17
4570;BME280;2297;51.442;6.996;2023-07-29T05:07:13;99433.34;;;19.89;69.29
4570;BME280;2297;51.442;6.996;2023-07-29T05:09:39;99429.94;;;19.87;69.13
4570;BME280;2297;51.442;6.996;2023-07-29T05:12:06;99416.63;;;19.98;68.58
4570;BME280;2297;51.442;6.996;2023-07-29T05:14:33;99411.03;;;20.01;68.18
4570;BME280;2297;51.442;6.996;2023-07-29T05:17:00;99406.72;;;20.11;67.41
4570;BME280;2297;51.442;6.996;2023-07-29T05:19:27;99396.78;;;20.25;67.19
4570;BME280;2297;51.442;6.996;2023-07-29T05:21:53;99389.81;;;20.22;67.22
4570;BME280;2297;51.442;6.996;2023-07-29T05:24:21;99390.63;;;20.11;66.68
4570;BME280;2297;51.442;6.996;2023-07-29T05:26:48;99396.84;;;20.12;66.62
4570;BME280;2297;51.442;6.996;2023-07-29T05:29:15;99400.16;;;20.27;65.67
4570;BME280;2297;51.442;6.996;2023-07-29T05:31:42;99398.88;;;20.08;65.48
4570;BME280;2297;51.442;6.996;2023-07-29T05:34:08;99407.94;;;20.19;65.44
4570;BME280;2297;51.442;6.996;2023-07-29T05:36:35;99420.59;;;20.17;65.18
4570;BME280;2297;51.442;6.996;2023-07-29T05:39:02;99428.59;;;20.05;66.04
4570;BME280;2297;51.442;6.996;2023-07-29T05:41:30;99434.81;;;19.69;67.29
4570;BME280;2297;51.442;6.996;2023-07-29T05:43:57;99441.50;;;19.87;66.77
4570;BME280;2297;51.442;6.996;2023-07-29T05:46:23;99449.75;;;19.97;66.10
4570;BME280;2297;51.442;6.996;2023-07-29T05:48:50;99462.00;;;20.13;65.17
4570;BME280;2297;51.442;6.996;2023-07-29T05:51:17;99466.63;;;20.10;64.99
4570;BME280;2297;51.442;6.996;2023-07-29T05:53:44;99473.41;;;20.03;65.19
4570;BME280;2297;51.442;6.996;2023-07-29T05:56:11;99463.56;;;19.91;65.49
4570;BME280;2297;51.442;6.996;2023-07-29T05:58:39;99460.72;;;20.18;64.51
4570;BME280;2297;51.442;6.996;2023-07-29T06:01:05;99465.94;;;20.20;64.10
4570;BME280;2297;51.442;6.996;2023-07-29T06:03:32;99471.25;;;20.33;63.93
4570;BME280;2297;51.442;6.996;2023-07-29T06:06:36;99468.66;;;20.31;63.19
4570;BME280;2297;51.442;6.996;2023-07-29T06:09:02;99478.47;;;19.95;62.32
4570;BME280;2297;51.442;6.996;2023-07-29T06:11:29;99483.00;;;19.94;61.20
4570;BME280;2297;51.442;6.996;2023-07-29T06:13:57;99489.09;;;19.84;61.04
4570;BME280;2297;51.442;6.996;2023-07-29T06:16:24;99486.34;;;19.72;60.87
4570;BME280;2297;51.442;6.996;2023-07-29T06:18:51;99487.44;;;19.57;60.66
4570;BME280;2297;51.442;6.996;2023-07-29T06:24:39;99496.56;;;20.04;59.45
4570;BME280;2297;51.442;6.996;2023-07-29T06:27:06;99504.53;;;19.93;59.97
4570;BME280;2297;51.442;6.996;2023-07-29T06:29:34;99509.53;;;19.85;59.47
4570;BME280;2297;51.442;6.996;2023-07-29T06:32:01;99514.19;;;19.83;59.68
4570;BME280;2297;51.442;6.996;2023-07-29T06:34:27;99512.88;;;19.75;59.54
4570;BME280;2297;51.442;6.996;2023-07-29T06:36:54;99514.63;;;19.76;59.26
4570;BME280;2297;51.442;6.996;2023-07-29T06:39:20;99516.75;;;19.84;59.47
4570;BME280;2297;51.442;6.996;2023-07-29T06:41:47;99504.94;;;19.87;59.22
4570;BME280;2297;51.442;6.996;2023-07-29T06:44:14;99524.03;;;19.95;59.20
4570;BME280;2297;51.442;6.996;2023-07-29T06:46:42;99515.50;;;19.64;59.72
4570;BME280;2297;51.442;6.996;2023-07-29T06:49:09;99521.44;;;19.81;59.10
4570;BME280;2297;51.442;6.996;2023-07-29T06:51:35;99518.22;;;20.01;58.34
4570;BME280;2297;51.442;6.996;2023-07-29T06:54:02;99519.72;;;19.79;58.86
4570;BME280;2297;51.442;6.996;2023-07-29T06:56:29;99516.44;;;19.76;58.63
4570;BME280;2297;51.442;6.996;2023-07-29T06:58:55;99510.50;;;19.97;58.40
4570;BME280;2297;51.442;6.996;2023-07-29T07:01:22;99507.81;;;19.47;59.48
4570;BME280;2297;51.442;6.996;2023-07-29T07:03:50;99503.22;;;19.86;58.15
4570;BME280;2297;51.442;6.996;2023-07-29T07:06:19;99504.53;;;19.93;58.14
4570;BME280;2297;51.442;6.996;2023-07-29T07:12:08;99502.53;;;19.06;60.30
4570;BME280;2297;51.442;6.996;2023-07-29T07:14:34;99505.34;;;19.56;58.45
4570;BME280;2297;51.442;6.996;2023-07-29T07:17:01;99505.19;;;19.71;58.15
4570;BME280;2297;51.442;6.996;2023-07-29T07:19:29;99508.59;;;19.86;58.02
4570;BME280;2297;51.442;6.996;2023-07-29T07:21:56;99508.34;;;20.02;58.19
4570;BME280;2297;51.442;6.996;2023-07-29T07:24:22;99510.31;;;20.00;58.32
4570;BME280;2297;51.442;6.996;2023-07-29T07:26:49;99513.22;;;20.21;57.30
4570;BME280;2297;51.442;6.996;2023-07-29T07:29:16;99514.00;;;20.10;57.99
4570;BME280;2297;51.442;6.996;2023-07-29T07:31:50;99513.75;;;19.76;57.90
4570;BME280;2297;51.442;6.996;2023-07-29T07:34:16;99516.06;;;20.31;56.80
4570;BME280;2297;51.442;6.996;2023-07-29T07:36:44;99516.00;;;19.95;57.22
4570;BME280;2297;51.442;6.996;2023-07-29T07:39:11;99516.06;;;20.06;57.02
4570;BME280;2297;51.442;6.996;2023-07-29T07:41:38;99518.59;;;20.21;56.70
4570;BME280;2297;51.442;6.996;2023-07-29T07:44:09;99515.03;;;19.83;57.11
4570;BME280;2297;51.442;6.996;2023-07-29T07:46:40;99513.22;;;19.84;56.51
4570;BME280;2297;51.442;6.996;2023-07-29T07:49:07;99513.16;;;20.34;55.50
4570;BME280;2297;51.442;6.996;2023-07-29T07:51:33;99517.78;;;20.56;55.25
4570;BME280;2297;51.442;6.996;2023-07-29T07:54:01;99510.81;;;19.42;56.42
4570;BME280;2297;51.442;6.996;2023-07-29T07:56:28;99509.84;;;20.06;54.90
4570;BME280;2297;51.442;6.996;2023-07-29T07:58:55;99517.06;;;19.92;55.24
4570;BME280;2297;51.442;6.996;2023-07-29T08:01:21;99517.28;;;20.02;55.18
4570;BME280;2297;51.442;6.996;2023-07-29T08:03:48;99517.34;;;19.51;57.52
4570;BME280;2297;51.442;6.996;2023-07-29T08:06:14;99522.88;;;19.73;56.26
4570;BME280;2297;51.442;6.996;2023-07-29T08:08:41;99516.75;;;19.71;56.27
4570;BME280;2297;51.442;6.996;2023-07-29T08:11:09;99511.78;;;19.91;56.17
4570;BME280;2297;51.442;6.996;2023-07-29T08:13:36;99516.34;;;20.39;55.08
4570;BME280;2297;51.442;6.996;2023-07-29T08:16:03;99516.53;;;20.49;54.47
4570;BME280;2297;51.442;6.996;2023-07-29T08:18:29;99518.78;;;20.90;53.66
4570;BME280;2297;51.442;6.996;2023-07-29T08:20:57;99517.88;;;20.78;52.93
4570;BME280;2297;51.442;6.996;2023-07-29T08:23:28;99517.97;;;21.24;52.15
4570;BME280;2297;51.442;6.996;2023-07-29T08:25:57;99520.94;;;21.32;51.44
4570;BME280;2297;51.442;6.996;2023-07-29T08:28:28;99515.28;;;21.13;51.31
4570;BME280;2297;51.442;6.996;2023-07-29T08:30:55;99532.44;;;21.57;50.73
4570;BME280;2297;51.442;6.996;2023-07-29T08:33:21;99515.16;;;21.14;51.99
4570;BME280;2297;51.442;6.996;2023-07-29T08:35:48;99519.88;;;20.64;51.92
4570;BME280;2297;51.442;6.996;2023-07-29T08:38:15;99519.13;;;20.86;52.29
4570;BME280;2297;51.442;6.996;2023-07-29T08:40:43;99532.13;;;21.26;52.27
4570;BME280;2297;51.442;6.996;2023-07-29T08:43:12;99526.72;;;21.03;52.32
4570;BME280;2297;51.442;6.996;2023-07-29T08:45:43;99520.66;;;21.13;52.06
4570;BME280;2297;51.442;6.996;2023-07-29T08:48:10;99514.06;;;21.28;52.41
4570;BME280;2297;51.442;6.996;2023-07-29T08:50:39;99513.34;;;21.26;53.15
4570;BME280;2297;51.442;6.996;2023-07-29T08:53:07;99507.28;;;21.35;52.46
4570;BME280;2297;51.442;6.996;2023-07-29T08:55:34;99505.13;;;21.16;51.82
4570;BME280;2297;51.442;6.996;2023-07-29T08:58:01;99501.53;;;21.40;51.88
4570;BME280;2297;51.442;6.996;2023-07-29T09:00:29;99510.34;;;21.65;51.06
4570;BME280;2297;51.442;6.996;2023-07-29T09:02:57;99511.38;;;21.28;52.01
4570;BME280;2297;51.442;6.996;2023-07-29T09:05:29;99504.59;;;21.35;51.88
4570;BME280;2297;51.442;6.996;2023-07-29T09:07:56;99505.81;;;21.42;49.56
4570;BME280;2297;51.442;6.996;2023-07-29T09:10:24;99520.75;;;21.00;49.78
4570;BME280;2297;51.442;6.996;2023-07-29T09:12:53;99515.00;;;20.93;50.15
4570;BME280;2297;51.442;6.996;2023-07-29T09:15:29;99529.25;;;20.82;50.77
4570;BME280;2297;51.442;6.996;2023-07-29T09:17:57;99526.31;;;20.85;51.26
4570;BME280;2297;51.442;6.996;2023-07-29T09:20:25;99517.78;;;21.50;50.41
4570;BME280;2297;51.442;6.996;2023-07-29T09:22:53;99520.22;;;21.64;50.13
4570;BME280;2297;51.442;6.996;2023-07-29T09:25:24;99520.69;;;21.92;49.59
4570;BME280;2297;51.442;6.996;2023-07-29T09:27:52;99533.16;;;22.04;48.95
4570;BME280;2297;51.442;6.996;2023-07-29T09:30:19;99526.19;;;21.68;49.25
4570;BME280;2297;51.442;6.996;2023-07-29T09:32:46;99516.00;;;22.17;48.72
4570;BME280;2297;51.442;6.996;2023-07-29T09:35:13;99527.72;;;22.27;48.74
4570;BME280;2297;51.442;6.996;2023-07-29T09:37:40;99530.22;;;21.96;49.51
4570;BME280;2297;51.442;6.996;2023-07-29T09:40:13;99531.94;;;21.74;49.81
4570;BME280;2297;51.442;6.996;2023-07-29T09:42:40;99526.63;;;22.30;49.22
4570;BME280;2297;51.442;6.996;2023-07-29T09:45:19;99528.97;;;22.00;49.13
4570;BME280;2297;51.442;6.996;2023-07-29T09:47:46;99524.41;;;22.67;48.00
4570;BME280;2297;51.442;6.996;2023-07-29T09:50:14;99530.38;;;22.38;48.75
4570;BME280;2297;51.442;6.996;2023-07-29T09:52:41;99544.06;;;22.35;49.06
4570;BME280;2297;51.442;6.996;2023-07-29T09:55:09;99534.25;;;22.46;49.00
4570;BME280;2297;51.442;6.996;2023-07-29T09:57:37;99536.78;;;22.58;48.90
4570;BME280;2297;51.442;6.996;2023-07-29T10:00:05;99530.81;;;22.11;49.32
4570;BME280;2297;51.442;6.996;2023-07-29T10:02:36;99537.38;;;22.62;48.78
4570;BME280;2297;51.442;6.996;2023-07-29T10:05:05;99529.56;;;22.70;48.96
4570;BME280;2297;51.442;6.996;2023-07-29T10:07:33;99533.34;;;22.56;48.75
4570;BME280;2297;51.442;6.996;2023-07-29T10:10:02;99524.88;;;22.40;49.15
4570;BME280;2297;51.442;6.996;2023-07-29T10:12:30;99516.47;;;22.33;49.61
4570;BME280;2297;51.442;6.996;2023-07-29T10:14:59;99521.91;;;21.88;50.82
4570;BME280;2297;51.442;6.996;2023-07-29T10:17:26;99532.63;;;21.99;51.27
4570;BME280;2297;51.442;6.996;2023-07-29T10:19:53;99531.66;;;22.23;50.13
4570;BME280;2297;51.442;6.996;2023-07-29T10:22:24;99530.94;;;22.09;50.09
4570;BME280;2297;51.442;6.996;2023-07-29T10:24:59;99536.34;;;22.42;49.18
4570;BME280;2297;51.442;6.996;2023-07-29T10:27:31;99522.59;;;22.24;49.31
4570;BME280;2297;51.442;6.996;2023-07-29T10:30:00;99521.59;;;22.25;49.28
4570;BME280;2297;51.442;6.996;2023-07-29T10:32:26;99520.81;;;22.46;48.32
4570;BME280;2297;51.442;6.996;2023-07-29T10:34:53;99519.13;;;22.98;47.97
4570;BME280;2297;51.442;6.996;2023-07-29T10:37:21;99519.44;;;22.84;47.20
4570;BME280;2297;51.442;6.996;2023-07-29T10:39:53;99524.22;;;22.80;47.46
4570;BME280;2297;51.442;6.996;2023-07-29T10:42:22;99520.16;;;23.07;47.14
4570;BME280;2297;51.442;6.996;2023-07-29T10:44:50;99529.69;;;22.57;48.12
4570;BME280;2297;51.442;6.996;2023-07-29T10:47:19;99536.44;;;22.52;48.26
4570;BME280;2297;51.442;6.996;2023-07-29T10:49:47;99535.84;;;22.48;48.42
4570;BME280;2297;51.442;6.996;2023-07-29T10:52:14;99530.97;;;22.42;48.66
4570;BME280;2297;51.442;6.996;2023-07-29T10:54:42;99530.84;;;22.43;48.68
4570;BME280;2297;51.442;6.996;2023-07-29T10:57:13;99522.34;;;22.92;48.00
4570;BME280;2297;51.442;6.996;2023-07-29T10:59:53;99526.00;;;23.33;46.88
4570;BME280;2297;51.442;6.996;2023-07-29T11:02:21;99513.41;;;23.13;46.70
4570;BME280;2297;51.442;6.996;2023-07-29T11:04:49;99519.31;;;23.06;46.96
4570;BME280;2297;51.442;6.996;2023-07-29T11:07:23;99509.06;;;23.00;46.72
4570;BME280;2297;51.442;6.996;2023-07-29T11:09:55;99507.44;;;22.88;47.45
4570;BME280;2297;51.442;6.996;2023-07-29T11:12:43;99500.34;;;23.08;46.65
4570;BME280;2297;51.442;6.996;2023-07-29T11:15:22;99512.41;;;23.14;45.70
4570;BME280;2297;51.442;6.996;2023-07-29T11:17:51;99511.25;;;23.06;46.09
4570;BME280;2297;51.442;6.996;2023-07-29T11:20:21;99514.13;;;23.36;45.81
4570;BME280;2297;51.442;6.996;2023-07-29T11:22:49;99518.19;;;23.61;44.73
4570;BME280;2297;51.442;6.996;2023-07-29T11:25:17;99515.72;;;23.27;45.34
4570;BME280;2297;51.442;6.996;2023-07-29T11:27:44;99506.97;;;23.56;44.85
4570;BME280;2297;51.442;6.996;2023-07-29T11:30:12;99507.75;;;23.16;45.88
4570;BME280;2297;51.442;6.996;2023-07-29T11:32:42;99504.25;;;23.87;44.77
4570;BME280;2297;51.442;6.996;2023-07-29T11:35:11;99512.56;;;23.74;44.88
4570;BME280;2297;51.442;6.996;2023-07-29T11:37:39;99507.69;;;23.58;44.94
4570;BME280;2297;51.442;6.996;2023-07-29T11:40:06;99514.13;;;23.36;45.19
4570;BME280;2297;51.442;6.996;2023-07-29T11:42:35;99524.09;;;23.45;44.08
4570;BME280;2297;51.442;6.996;2023-07-29T11:45:02;99521.91;;;23.39;44.73
4570;BME280;2297;51.442;6.996;2023-07-29T11:47:32;99517.78;;;23.35;44.72
4570;BME280;2297;51.442;6.996;2023-07-29T11:50:03;99512.78;;;23.30;45.17
4570;BME280;2297;51.442;6.996;2023-07-29T11:52:31;99514.06;;;23.26;45.76
4570;BME280;2297;51.442;6.996;2023-07-29T11:55:00;99511.97;;;23.61;44.92
4570;BME280;2297;51.442;6.996;2023-07-29T11:57:26;99504.34;;;23.75;44.82
4570;BME280;2297;51.442;6.996;2023-07-29T11:59:53;99499.63;;;24.08;43.97
4570;BME280;2297;51.442;6.996;2023-07-29T12:02:21;99487.88;;;24.09;43.93
4570;BME280;2297;51.442;6.996;2023-07-29T12:04:49;99492.19;;;23.91;44.10
4570;BME280;2297;51.442;6.996;2023-07-29T12:07:18;99488.88;;;24.28;41.93
4570;BME280;2297;51.442;6.996;2023-07-29T12:09:46;99479.94;;;24.18;41.49
4570;BME280;2297;51.442;6.996;2023-07-29T12:12:12;99487.19;;;24.56;41.07
4570;BME280;2297;51.442;6.996;2023-07-29T12:14:43;99486.06;;;24.59;42.00
4570;BME280;2297;51.442;6.996;2023-07-29T12:17:10;99484.91;;;24.32;42.39
4570;BME280;2297;51.442;6.996;2023-07-29T12:19:39;99483.63;;;23.76;42.71
4570;BME280;2297;51.442;6.996;2023-07-29T12:22:08;99489.84;;;23.67;42.89
4570;BME280;2297;51.442;6.996;2023-07-29T12:24:37;99489.44;;;24.22;42.32
4570;BME280;2297;51.442;6.996;2023-07-29T12:27:05;99495.28;;;23.76;43.23
4570;BME280;2297;51.442;6.996;2023-07-29T12:29:32;99503.06;;;24.30;42.68
4570;BME280;2297;51.442;6.996;2023-07-29T12:32:00;99496.13;;;24.37;42.09
4570;BME280;2297;51.442;6.996;2023-07-29T12:34:28;99490.19;;;23.93;43.09
4570;BME280;2297;51.442;6.996;2023-07-29T12:36:55;99498.50;;;24.21;42.97
4570;BME280;2297;51.442;6.996;2023-07-29T12:39:24;99502.22;;;24.39;41.65
4570;BME280;2297;51.442;6.996;2023-07-29T12:41:54;99511.00;;;24.22;41.31
4570;BME280;2297;51.442;6.996;2023-07-29T12:44:22;99492.97;;;24.22;41.76
4570;BME280;2297;51.442;6.996;2023-07-29T12:46:49;99501.38;;;24.49;41.27
4570;BME280;2297;51.442;6.996;2023-07-29T12:49:16;99489.16;;;24.45;41.61
4570;BME280;2297;51.442;6.996;2023-07-29T12:51:43;99491.84;;;24.15;42.24
4570;BME280;2297;51.442;6.996;2023-07-29T12:54:10;99490.19;;;24.63;41.83
4570;BME280;2297;51.442;6.996;2023-07-29T12:56:36;99498.53;;;24.80;41.28
4570;BME280;2297;51.442;6.996;2023-07-29T12:59:05;99488.56;;;24.90;40.56
4570;BME280;2297;51.442;6.996;2023-07-29T13:01:32;99494.97;;;24.89;40.70
4570;BME280;2297;51.442;6.996;2023-07-29T13:03:58;99504.91;;;24.30;41.30
4570;BME280;2297;51.442;6.996;2023-07-29T13:06:25;99488.63;;;23.81;42.55
4570;BME280;2297;51.442;6.996;2023-07-29T13:08:52;99495.69;;;24.42;41.89
4570;BME280;2297;51.442;6.996;2023-07-29T13:11:18;99488.56;;;24.12;42.73
4570;BME280;2297;51.442;6.996;2023-07-29T13:13:45;99488.88;;;24.48;41.62
4570;BME280;2297;51.442;6.996;2023-07-29T13:16:13;99490.84;;;24.85;40.69
4570;BME280;2297;51.442;6.996;2023-07-29T13:18:40;99491.41;;;24.88;41.21
4570;BME280;2297;51.442;6.996;2023-07-29T13:21:07;99497.09;;;25.05;40.70
4570;BME280;2297;51.442;6.996;2023-07-29T13:23:33;99490.41;;;24.99;40.46
4570;BME280;2297;51.442;6.996;2023-07-29T13:26:00;99495.66;;;25.01;40.47
4570;BME280;2297;51.442;6.996;2023-07-29T13:28:27;99495.41;;;24.45;41.14
4570;BME280;2297;51.442;6.996;2023-07-29T13:30:53;99491.56;;;24.48;41.17
4570;BME280;2297;51.442;6.996;2023-07-29T13:33:21;99491.84;;;24.25;41.86
4570;BME280;2297;51.442;6.996;2023-07-29T13:35:48;99492.97;;;24.13;42.20